createdAt,value
2018-05-03T00:00:26.950Z,997.62
2018-05-03T00:01:26.952Z,997.61
2018-05-03T00:02:26.921Z,997.64
2018-05-03T00:03:26.924Z,997.66
2018-05-03T00:04:26.906Z,997.64
2018-05-03T00:05:26.937Z,997.63
2018-05-03T00:06:26.882Z,997.62
2018-05-03T00:07:26.870Z,997.60
2018-05-03T00:08:26.851Z,997.59
2018-05-03T00:09:26.859Z,997.62
2018-05-03T00:10:26.856Z,997.61
2018-05-03T00:11:26.829Z,997.63
2018-05-03T00:12:26.837Z,997.63
2018-05-03T00:13:26.782Z,997.63
2018-05-03T00:14:26.776Z,997.63
2018-05-03T00:15:26.772Z,997.62
2018-05-03T00:16:26.790Z,997.60
2018-05-03T00:17:26.750Z,997.63
2018-05-03T00:18:26.741Z,997.68
2018-05-03T00:19:26.712Z,997.65
2018-05-03T00:20:26.706Z,997.72
2018-05-03T00:21:26.695Z,997.68
2018-05-03T00:22:26.681Z,997.68
2018-05-03T00:23:26.669Z,997.70
2018-05-03T00:24:26.655Z,997.70
2018-05-03T00:25:26.639Z,997.72
2018-05-03T00:26:26.613Z,997.75
2018-05-03T00:27:26.614Z,997.75
2018-05-03T00:28:26.651Z,997.79
2018-05-03T00:29:26.577Z,997.79
2018-05-03T00:30:26.597Z,997.75
2018-05-03T00:31:26.566Z,997.82
2018-05-03T00:32:26.555Z,997.83
2018-05-03T00:33:26.543Z,997.83
2018-05-03T00:34:26.560Z,997.89
2018-05-03T00:35:26.522Z,997.88
2018-05-03T00:36:26.502Z,997.94
2018-05-03T00:37:26.476Z,997.98
2018-05-03T00:38:26.484Z,997.95
2018-05-03T00:39:26.897Z,997.93
2018-05-03T00:40:26.448Z,997.95
2018-05-03T00:41:26.443Z,997.99
2018-05-03T00:42:26.431Z,997.97
2018-05-03T00:43:26.409Z,997.96
2018-05-03T00:44:26.405Z,997.97
2018-05-03T00:45:26.390Z,997.97
2018-05-03T00:46:26.498Z,997.98
2018-05-03T00:47:26.346Z,997.98
2018-05-03T00:48:26.344Z,998.02
2018-05-03T00:49:26.328Z,998.04
2018-05-03T00:50:26.326Z,998.02
2018-05-03T00:51:26.311Z,997.98
2018-05-03T00:52:26.314Z,997.99
2018-05-03T00:53:26.283Z,998.01
2018-05-03T00:54:26.265Z,997.99
2018-05-03T00:55:26.259Z,998.03
2018-05-03T00:56:26.269Z,998.02
2018-05-03T00:57:26.371Z,998.06
2018-05-03T00:58:26.214Z,998.05
2018-05-03T00:59:26.213Z,998.08
2018-05-03T01:00:26.188Z,998.10
2018-05-03T01:01:26.181Z,998.13
2018-05-03T01:02:26.173Z,998.15
2018-05-03T01:03:26.188Z,998.12
2018-05-03T01:04:26.149Z,998.16
2018-05-03T01:05:26.150Z,998.19
2018-05-03T01:06:26.118Z,998.22
2018-05-03T01:07:26.108Z,998.19
2018-05-03T01:08:26.248Z,998.22
2018-05-03T01:09:26.074Z,998.22
2018-05-03T01:10:26.071Z,998.21
2018-05-03T01:11:26.057Z,998.20
2018-05-03T01:12:26.047Z,998.22
2018-05-03T01:13:26.031Z,998.21
2018-05-03T01:14:26.050Z,998.21
2018-05-03T01:15:26.043Z,998.19
2018-05-03T01:16:25.992Z,998.22
2018-05-03T01:17:25.976Z,998.20
2018-05-03T01:18:25.966Z,998.23
2018-05-03T01:19:25.942Z,998.27
2018-05-03T01:20:25.989Z,998.25
2018-05-03T01:21:25.936Z,998.26
2018-05-03T01:22:25.907Z,998.33
2018-05-03T01:23:25.891Z,998.30
2018-05-03T01:24:25.877Z,998.30
2018-05-03T01:25:25.878Z,998.26
2018-05-03T01:26:25.862Z,998.30
2018-05-03T01:27:25.855Z,998.27
2018-05-03T01:28:25.911Z,998.26
2018-05-03T01:29:25.831Z,998.28
2018-05-03T01:30:25.809Z,998.24
2018-05-03T01:31:25.796Z,998.25
2018-05-03T01:32:25.775Z,998.28
2018-05-03T01:33:25.782Z,998.27
2018-05-03T01:34:25.771Z,998.32
2018-05-03T01:35:25.737Z,998.29
2018-05-03T01:36:25.731Z,998.25
2018-05-03T01:37:25.719Z,998.25
2018-05-03T01:38:25.702Z,998.27
2018-05-03T01:39:25.824Z,998.30
2018-05-03T01:40:25.674Z,998.33
2018-05-03T01:41:25.659Z,998.36
2018-05-03T01:42:25.644Z,998.38
2018-05-03T01:43:25.633Z,998.37
2018-05-03T01:44:25.635Z,998.34
2018-05-03T01:45:25.629Z,998.38
2018-05-03T01:46:25.601Z,998.40
2018-05-03T01:47:25.594Z,998.42
2018-05-03T01:48:25.614Z,998.41
2018-05-03T01:49:25.557Z,998.43
2018-05-03T01:50:25.535Z,998.39
2018-05-03T01:51:25.534Z,998.42
2018-05-03T01:52:25.524Z,998.38
2018-05-03T01:53:25.495Z,998.43
2018-05-03T01:54:25.525Z,998.40
2018-05-03T01:55:25.476Z,998.43
2018-05-03T01:56:25.483Z,998.43
2018-05-03T01:57:25.460Z,998.47
2018-05-03T01:58:25.443Z,998.52
2018-05-03T01:59:25.425Z,998.54
2018-05-03T02:00:25.431Z,998.56
2018-05-03T02:01:25.443Z,998.53
2018-05-03T02:02:25.399Z,998.53
2018-05-03T02:03:25.418Z,998.51
2018-05-03T02:04:25.358Z,998.53
2018-05-03T02:05:25.350Z,998.57
2018-05-03T02:06:25.336Z,998.59
2018-05-03T02:07:25.332Z,998.59
2018-05-03T02:08:25.627Z,998.60
2018-05-03T02:09:25.298Z,998.60
2018-05-03T02:10:25.272Z,998.59
2018-05-03T02:11:25.265Z,998.57
2018-05-03T02:12:25.267Z,998.61
2018-05-03T02:13:25.239Z,998.60
2018-05-03T02:14:25.230Z,998.68
2018-05-03T02:15:25.217Z,998.67
2018-05-03T02:16:25.198Z,998.67
2018-05-03T02:17:25.192Z,998.67
2018-05-03T02:18:25.171Z,998.63
2018-05-03T02:19:25.210Z,998.66
2018-05-03T02:20:25.150Z,998.69
2018-05-03T02:21:25.138Z,998.71
2018-05-03T02:22:25.132Z,998.71
2018-05-03T02:23:25.105Z,998.67
2018-05-03T02:24:25.180Z,998.68
2018-05-03T02:25:25.077Z,998.69
2018-05-03T02:26:25.097Z,998.72
2018-05-03T02:27:25.060Z,998.71
2018-05-03T02:28:25.059Z,998.69
2018-05-03T02:29:25.020Z,998.75
2018-05-03T02:30:25.017Z,998.70
2018-05-03T02:31:25.366Z,998.78
2018-05-03T02:32:25.064Z,998.80
2018-05-03T02:33:25.012Z,998.76
2018-05-03T02:34:24.963Z,998.80
2018-05-03T02:35:24.954Z,998.79
2018-05-03T02:36:24.932Z,998.80
2018-05-03T02:37:25.021Z,998.81
2018-05-03T02:38:24.901Z,998.80
2018-05-03T02:39:24.897Z,998.83
2018-05-03T02:40:24.878Z,998.77
2018-05-03T02:41:24.854Z,998.82
2018-05-03T02:42:24.911Z,998.80
2018-05-03T02:43:24.846Z,998.79
2018-05-03T02:44:24.824Z,998.79
2018-05-03T02:45:24.819Z,998.81
2018-05-03T02:46:24.800Z,998.78
2018-05-03T02:47:24.798Z,998.80
2018-05-03T02:48:24.792Z,998.84
2018-05-03T02:49:24.766Z,998.81
2018-05-03T02:50:24.750Z,998.87
2018-05-03T02:51:24.746Z,998.89
2018-05-03T02:52:24.724Z,998.87
2018-05-03T02:53:24.775Z,998.88
2018-05-03T02:54:24.700Z,998.88
2018-05-03T02:55:24.683Z,998.93
2018-05-03T02:56:24.676Z,998.94
2018-05-03T02:57:24.661Z,998.99
2018-05-03T02:58:24.641Z,999.02
2018-05-03T02:59:24.664Z,999.00
2018-05-03T03:00:24.608Z,999.00
2018-05-03T03:01:24.597Z,998.98
2018-05-03T03:02:24.605Z,998.96
2018-05-03T03:03:25.012Z,999.01
2018-05-03T03:04:24.567Z,998.96
2018-05-03T03:05:24.542Z,999.00
2018-05-03T03:06:24.537Z,998.99
2018-05-03T03:07:24.533Z,999.00
2018-05-03T03:08:24.503Z,999.02
2018-05-03T03:09:24.501Z,999.03
2018-05-03T03:10:24.529Z,999.04
2018-05-03T03:11:24.470Z,999.06
2018-05-03T03:12:24.457Z,999.10
2018-05-03T03:13:24.455Z,999.09
2018-05-03T03:14:24.419Z,999.11
2018-05-03T03:15:24.399Z,999.13
2018-05-03T03:16:24.529Z,999.15
2018-05-03T03:17:24.377Z,999.14
2018-05-03T03:18:24.373Z,999.13
2018-05-03T03:19:24.370Z,999.15
2018-05-03T03:20:24.363Z,999.15
2018-05-03T03:21:24.321Z,999.15
2018-05-03T03:22:24.359Z,999.17
2018-05-03T03:23:24.300Z,999.18
2018-05-03T03:24:24.295Z,999.23
2018-05-03T03:25:24.266Z,999.22
2018-05-03T03:26:24.298Z,999.20
2018-05-03T03:27:24.245Z,999.22
2018-05-03T03:28:24.282Z,999.20
2018-05-03T03:29:24.223Z,999.24
2018-05-03T03:30:24.201Z,999.26
2018-05-03T03:31:24.524Z,999.26
2018-05-03T03:32:24.177Z,999.22
2018-05-03T03:33:24.158Z,999.23
2018-05-03T03:34:24.145Z,999.22
2018-05-03T03:35:24.144Z,999.21
2018-05-03T03:36:24.148Z,999.20
2018-05-03T03:37:24.157Z,999.22
2018-05-03T03:38:24.098Z,999.24
2018-05-03T03:39:24.079Z,999.26
2018-05-03T03:40:24.069Z,999.23
2018-05-03T03:41:24.060Z,999.26
2018-05-03T03:42:24.044Z,999.25
2018-05-03T03:43:24.044Z,999.32
2018-05-03T03:44:23.999Z,999.30
2018-05-03T03:45:24.001Z,999.34
2018-05-03T03:46:23.984Z,999.30
2018-05-03T03:47:23.970Z,999.33
2018-05-03T03:48:23.958Z,999.36
2018-05-03T03:49:23.955Z,999.38
2018-05-03T03:50:23.921Z,999.42
2018-05-03T03:51:23.928Z,999.46
2018-05-03T03:52:23.900Z,999.51
2018-05-03T03:53:23.892Z,999.53
2018-05-03T03:54:23.867Z,999.52
2018-05-03T03:55:23.863Z,999.54
2018-05-03T03:56:23.842Z,999.55
2018-05-03T03:57:23.833Z,999.60
2018-05-03T03:58:23.853Z,999.61
2018-05-03T03:59:23.801Z,999.61
2018-05-03T04:00:23.801Z,999.66
2018-05-03T04:01:23.773Z,999.62
2018-05-03T04:02:23.764Z,999.57
2018-05-03T04:03:23.763Z,999.56
2018-05-03T04:04:23.739Z,999.59
2018-05-03T04:05:23.719Z,999.63
2018-05-03T04:06:23.713Z,999.61
2018-05-03T04:07:23.705Z,999.61
2018-05-03T04:08:23.716Z,999.61
2018-05-03T04:09:23.661Z,999.67
2018-05-03T04:10:23.654Z,999.68
2018-05-03T04:11:23.996Z,999.72
2018-05-03T04:12:23.618Z,999.65
2018-05-03T04:13:23.637Z,999.66
2018-05-03T04:14:23.617Z,999.68
2018-05-03T04:15:23.582Z,999.71
2018-05-03T04:16:23.579Z,999.73
2018-05-03T04:17:23.589Z,999.74
2018-05-03T04:18:23.544Z,999.73
2018-05-03T04:19:23.527Z,999.71
2018-05-03T04:20:23.518Z,999.69
2018-05-03T04:21:23.497Z,999.68
2018-05-03T04:22:23.559Z,999.68
2018-05-03T04:23:23.520Z,999.69
2018-05-03T04:24:23.471Z,999.75
2018-05-03T04:25:23.461Z,999.79
2018-05-03T04:26:23.437Z,999.83
2018-05-03T04:27:23.409Z,999.89
2018-05-03T04:28:23.447Z,999.89
2018-05-03T04:29:23.411Z,999.93
2018-05-03T04:30:23.371Z,999.90
2018-05-03T04:31:23.364Z,999.89
2018-05-03T04:32:23.346Z,999.87
2018-05-03T04:33:23.342Z,999.87
2018-05-03T04:34:23.338Z,999.92
2018-05-03T04:35:23.316Z,999.96
2018-05-03T04:36:23.345Z,999.96
2018-05-03T04:37:23.285Z,1000.00
2018-05-03T04:38:23.271Z,1000.08
2018-05-03T04:39:23.275Z,1000.03
2018-05-03T04:40:23.256Z,999.99
2018-05-03T04:41:23.269Z,1000.00
2018-05-03T04:42:23.219Z,1000.03
2018-05-03T04:43:23.207Z,1000.01
2018-05-03T04:44:23.190Z,1000.02
2018-05-03T04:45:23.183Z,1000.07
2018-05-03T04:46:23.220Z,1000.09
2018-05-03T04:47:23.176Z,1000.08
2018-05-03T04:48:24.140Z,1000.10
2018-05-03T04:49:23.190Z,1000.13
2018-05-03T04:50:23.148Z,1000.11
2018-05-03T04:51:23.192Z,1000.15
2018-05-03T04:52:23.100Z,1000.19
2018-05-03T04:53:23.097Z,1000.20
2018-05-03T04:54:23.074Z,1000.15
2018-05-03T04:55:23.049Z,1000.19
2018-05-03T04:56:23.045Z,1000.26
2018-05-03T04:57:23.204Z,1000.23
2018-05-03T04:58:23.007Z,1000.26
2018-05-03T04:59:23.000Z,1000.32
2018-05-03T05:00:23.020Z,1000.35
2018-05-03T05:01:22.977Z,1000.37
2018-05-03T05:02:22.951Z,1000.39
2018-05-03T05:03:22.947Z,1000.41
2018-05-03T05:04:22.920Z,1000.43
2018-05-03T05:05:22.960Z,1000.45
2018-05-03T05:06:23.090Z,1000.43
2018-05-03T05:07:22.879Z,1000.46
2018-05-03T05:08:22.886Z,1000.50
2018-05-03T05:09:22.868Z,1000.52
2018-05-03T05:10:22.847Z,1000.53
2018-05-03T05:11:22.834Z,1000.57
2018-05-03T05:12:22.827Z,1000.58
2018-05-03T05:13:22.829Z,1000.63
2018-05-03T05:14:22.794Z,1000.61
2018-05-03T05:15:22.822Z,1000.58
2018-05-03T05:16:22.770Z,1000.57
2018-05-03T05:17:22.763Z,1000.59
2018-05-03T05:18:22.767Z,1000.66
2018-05-03T05:19:22.732Z,1000.64
2018-05-03T05:20:22.712Z,1000.65
2018-05-03T05:21:22.744Z,1000.66
2018-05-03T05:22:22.749Z,1000.66
2018-05-03T05:23:22.676Z,1000.70
2018-05-03T05:24:22.663Z,1000.68
2018-05-03T05:25:22.773Z,1000.78
2018-05-03T05:26:22.699Z,1000.78
2018-05-03T05:27:22.631Z,1000.79
2018-05-03T05:28:22.611Z,1000.81
2018-05-03T05:29:22.603Z,1000.85
2018-05-03T05:30:22.595Z,1000.86
2018-05-03T05:31:22.584Z,1000.94
2018-05-03T05:32:22.712Z,1000.92
2018-05-03T05:33:22.558Z,1000.98
2018-05-03T05:34:22.536Z,1000.98
2018-05-03T05:35:22.524Z,1001.00
2018-05-03T05:36:22.697Z,1001.02
2018-05-03T05:37:22.492Z,1001.08
2018-05-03T05:38:22.613Z,1001.13
2018-05-03T05:39:22.497Z,1001.13
2018-05-03T05:40:22.456Z,1001.11
2018-05-03T05:41:22.686Z,1001.18
2018-05-03T05:42:22.428Z,1001.21
2018-05-03T05:43:22.420Z,1001.22
2018-05-03T05:44:22.459Z,1001.28
2018-05-03T05:45:22.420Z,1001.26
2018-05-03T05:46:22.388Z,1001.33
2018-05-03T05:47:22.362Z,1001.36
2018-05-03T05:48:22.352Z,1001.31
2018-05-03T05:49:22.364Z,1001.27
2018-05-03T05:50:22.332Z,1001.28
2018-05-03T05:51:22.317Z,1001.29
2018-05-03T05:52:22.289Z,1001.29
2018-05-03T05:53:22.301Z,1001.27
2018-05-03T05:54:22.540Z,1001.28
2018-05-03T05:55:22.269Z,1001.29
2018-05-03T05:56:22.255Z,1001.30
2018-05-03T05:57:22.229Z,1001.36
2018-05-03T05:58:22.222Z,1001.38
2018-05-03T05:59:22.209Z,1001.32
2018-05-03T06:00:22.202Z,1001.36
2018-05-03T06:01:22.209Z,1001.37
2018-05-03T06:02:22.167Z,1001.38
2018-05-03T06:03:22.285Z,1001.37
2018-05-03T06:04:22.212Z,1001.39
2018-05-03T06:05:22.135Z,1001.45
2018-05-03T06:06:22.340Z,1001.47
2018-05-03T06:07:22.116Z,1001.47
2018-05-03T06:08:22.147Z,1001.45
2018-05-03T06:09:22.287Z,1001.48
2018-05-03T06:10:22.088Z,1001.53
2018-05-03T06:11:22.220Z,1001.62
2018-05-03T06:12:22.139Z,1001.63
2018-05-03T06:13:22.095Z,1001.63
2018-05-03T06:14:22.028Z,1001.66
2018-05-03T06:15:22.008Z,1001.64
2018-05-03T06:16:22.518Z,1001.72
2018-05-03T06:17:21.981Z,1001.65
2018-05-03T06:18:21.981Z,1001.68
2018-05-03T06:19:21.982Z,1001.66
2018-05-03T06:20:21.937Z,1001.66
2018-05-03T06:21:21.923Z,1001.61
2018-05-03T06:22:21.927Z,1001.69
2018-05-03T06:23:21.903Z,1001.70
2018-05-03T06:24:21.903Z,1001.73
2018-05-03T06:25:21.879Z,1001.73
2018-05-03T06:26:21.868Z,1001.77
2018-05-03T06:27:21.851Z,1001.80
2018-05-03T06:28:21.833Z,1001.79
2018-05-03T06:29:21.866Z,1001.77
2018-05-03T06:30:21.841Z,1001.81
2018-05-03T06:31:21.802Z,1001.84
2018-05-03T06:32:21.797Z,1001.86
2018-05-03T06:33:21.799Z,1001.86
2018-05-03T06:34:21.755Z,1001.90
2018-05-03T06:35:22.126Z,1001.92
2018-05-03T06:36:21.748Z,1001.89
2018-05-03T06:37:21.727Z,1001.88
2018-05-03T06:38:21.706Z,1001.89
2018-05-03T06:39:21.707Z,1001.92
2018-05-03T06:40:21.736Z,1001.90
2018-05-03T06:41:21.683Z,1001.91
2018-05-03T06:42:21.664Z,1001.91
2018-05-03T06:43:21.692Z,1001.97
2018-05-03T06:44:21.676Z,1001.94
2018-05-03T06:45:21.644Z,1001.95
2018-05-03T06:46:21.609Z,1001.96
2018-05-03T06:47:21.597Z,1001.96
2018-05-03T06:48:21.584Z,1002.02
2018-05-03T06:49:21.578Z,1002.01
2018-05-03T06:50:21.571Z,1002.04
2018-05-03T06:51:21.593Z,1002.02
2018-05-03T06:52:21.669Z,1002.06
2018-05-03T06:53:21.523Z,1002.08
2018-05-03T06:54:21.519Z,1002.07
2018-05-03T06:55:21.513Z,1002.10
2018-05-03T06:56:21.489Z,1002.12
2018-05-03T06:57:21.561Z,1002.18
2018-05-03T06:58:21.463Z,1002.14
2018-05-03T06:59:21.458Z,1002.15
2018-05-03T07:00:21.447Z,1002.14
2018-05-03T07:01:21.432Z,1002.18
2018-05-03T07:02:21.421Z,1002.18
2018-05-03T07:03:21.429Z,1002.16
2018-05-03T07:04:21.566Z,1002.19
2018-05-03T07:05:21.363Z,1002.17
2018-05-03T07:06:21.569Z,1002.18
2018-05-03T07:07:21.358Z,1002.18
2018-05-03T07:08:21.347Z,1002.20
2018-05-03T07:09:21.330Z,1002.24
2018-05-03T07:10:21.346Z,1002.27
2018-05-03T07:11:21.299Z,1002.24
2018-05-03T07:12:21.305Z,1002.28
2018-05-03T07:13:21.277Z,1002.31
2018-05-03T07:14:21.256Z,1002.30
2018-05-03T07:15:21.407Z,1002.32
2018-05-03T07:16:21.246Z,1002.30
2018-05-03T07:17:21.224Z,1002.31
2018-05-03T07:18:21.214Z,1002.35
2018-05-03T07:19:21.196Z,1002.37
2018-05-03T07:20:21.200Z,1002.36
2018-05-03T07:21:21.196Z,1002.38
2018-05-03T07:22:21.172Z,1002.30
2018-05-03T07:23:21.146Z,1002.37
2018-05-03T07:24:21.137Z,1002.37
2018-05-03T07:25:21.141Z,1002.41
2018-05-03T07:26:21.491Z,1002.47
2018-05-03T07:27:21.104Z,1002.48
2018-05-03T07:28:21.141Z,1002.49
2018-05-03T07:29:21.117Z,1002.49
2018-05-03T07:30:21.065Z,1002.46
2018-05-03T07:31:21.063Z,1002.53
2018-05-03T07:32:21.217Z,1002.51
2018-05-03T07:33:21.048Z,1002.54
2018-05-03T07:34:21.021Z,1002.59
2018-05-03T07:35:21.024Z,1002.63
2018-05-03T07:36:21.997Z,1002.62
2018-05-03T07:37:20.985Z,1002.66
2018-05-03T07:38:20.981Z,1002.63
2018-05-03T07:39:20.967Z,1002.66
2018-05-03T07:40:21.536Z,1002.67
2018-05-03T07:41:20.946Z,1002.72
2018-05-03T07:42:20.927Z,1002.71
2018-05-03T07:43:20.943Z,1002.72
2018-05-03T07:44:20.910Z,1002.72
2018-05-03T07:45:20.949Z,1002.73
2018-05-03T07:46:20.874Z,1002.73
2018-05-03T07:47:20.882Z,1002.72
2018-05-03T07:48:20.869Z,1002.70
2018-05-03T07:49:20.853Z,1002.71
2018-05-03T07:50:20.845Z,1002.74
2018-05-03T07:51:20.825Z,1002.74
2018-05-03T07:52:20.804Z,1002.73
2018-05-03T07:53:20.796Z,1002.74
2018-05-03T07:54:20.787Z,1002.80
2018-05-03T07:55:20.774Z,1002.81
2018-05-03T07:56:20.794Z,1002.84
2018-05-03T07:57:21.537Z,1002.86
2018-05-03T07:58:20.741Z,1002.82
2018-05-03T07:59:20.765Z,1002.80
2018-05-03T08:00:20.714Z,1002.78
2018-05-03T08:01:20.734Z,1002.80
2018-05-03T08:02:20.724Z,1002.83
2018-05-03T08:03:20.683Z,1002.92
2018-05-03T08:04:20.671Z,1002.86
2018-05-03T08:05:20.679Z,1002.91
2018-05-03T08:06:20.656Z,1002.91
2018-05-03T08:07:20.672Z,1002.98
2018-05-03T08:08:20.636Z,1003.03
2018-05-03T08:09:20.614Z,1003.01
2018-05-03T08:10:20.612Z,1003.07
2018-05-03T08:11:20.592Z,1003.04
2018-05-03T08:12:20.615Z,1003.03
2018-05-03T08:13:20.576Z,1003.02
2018-05-03T08:14:20.605Z,1003.04
2018-05-03T08:15:20.577Z,1003.08
2018-05-03T08:16:20.547Z,1003.06
2018-05-03T08:17:20.545Z,1003.00
2018-05-03T08:18:20.516Z,1003.05
2018-05-03T08:19:20.535Z,1003.09
2018-05-03T08:20:20.489Z,1003.12
2018-05-03T08:21:20.479Z,1003.14
2018-05-03T08:22:20.555Z,1003.17
2018-05-03T08:23:20.449Z,1003.21
2018-05-03T08:24:20.602Z,1003.22
2018-05-03T08:25:20.638Z,1003.21
2018-05-03T08:26:20.417Z,1003.18
2018-05-03T08:27:20.402Z,1003.24
2018-05-03T08:28:20.407Z,1003.25
2018-05-03T08:29:20.400Z,1003.30
2018-05-03T08:30:20.422Z,1003.35
2018-05-03T08:31:20.376Z,1003.39
2018-05-03T08:32:20.349Z,1003.40
2018-05-03T08:33:20.344Z,1003.35
2018-05-03T08:34:20.685Z,1003.45
2018-05-03T08:35:20.322Z,1003.46
2018-05-03T08:36:20.382Z,1003.45
2018-05-03T08:37:20.304Z,1003.42
2018-05-03T08:38:20.287Z,1003.45
2018-05-03T08:39:20.295Z,1003.46
2018-05-03T08:40:20.270Z,1003.51
2018-05-03T08:41:20.289Z,1003.54
2018-05-03T08:42:20.240Z,1003.52
2018-05-03T08:43:20.243Z,1003.58
2018-05-03T08:44:20.229Z,1003.60
2018-05-03T08:45:20.253Z,1003.59
2018-05-03T08:46:20.211Z,1003.63
2018-05-03T08:47:20.196Z,1003.67
2018-05-03T08:48:20.172Z,1003.67
2018-05-03T08:49:20.176Z,1003.68
2018-05-03T08:50:20.175Z,1003.62
2018-05-03T08:51:20.146Z,1003.67
2018-05-03T08:52:20.239Z,1003.66
2018-05-03T08:53:20.141Z,1003.65
2018-05-03T08:54:20.112Z,1003.60
2018-05-03T08:55:20.120Z,1003.65
2018-05-03T08:56:20.097Z,1003.66
2018-05-03T08:57:20.095Z,1003.65
2018-05-03T08:58:20.100Z,1003.67
2018-05-03T08:59:20.073Z,1003.70
2018-05-03T09:00:20.053Z,1003.66
2018-05-03T09:01:20.113Z,1003.68
2018-05-03T09:02:20.041Z,1003.76
2018-05-03T09:03:20.074Z,1003.77
2018-05-03T09:04:20.026Z,1003.79
2018-05-03T09:05:20.014Z,1003.82
2018-05-03T09:06:20.063Z,1003.81
2018-05-03T09:07:20.006Z,1003.76
2018-05-03T09:08:20.127Z,1003.81
2018-05-03T09:09:19.986Z,1003.80
2018-05-03T09:10:19.952Z,1003.80
2018-05-03T09:11:19.951Z,1003.79
2018-05-03T09:12:19.933Z,1003.81
2018-05-03T09:13:19.924Z,1003.83
2018-05-03T09:14:19.928Z,1003.83
2018-05-03T09:15:19.912Z,1003.83
2018-05-03T09:16:20.234Z,1003.85
2018-05-03T09:17:19.901Z,1003.89
2018-05-03T09:18:19.902Z,1003.89
2018-05-03T09:19:19.876Z,1003.94
2018-05-03T09:20:19.865Z,1003.98
2018-05-03T09:21:19.863Z,1003.98
2018-05-03T09:22:19.922Z,1004.03
2018-05-03T09:23:19.842Z,1004.01
2018-05-03T09:24:19.835Z,1004.00
2018-05-03T09:25:19.827Z,1003.99
2018-05-03T09:26:19.816Z,1004.00
2018-05-03T09:27:19.821Z,1004.09
2018-05-03T09:28:19.831Z,1004.07
2018-05-03T09:29:19.782Z,1004.06
2018-05-03T09:30:19.789Z,1004.07
2018-05-03T09:31:19.759Z,1004.05
2018-05-03T09:32:19.796Z,1004.06
2018-05-03T09:33:19.769Z,1004.07
2018-05-03T09:34:19.739Z,1004.04
2018-05-03T09:35:19.738Z,1004.09
2018-05-03T09:36:19.732Z,1004.14
2018-05-03T09:37:19.708Z,1004.08
2018-05-03T09:38:19.754Z,1004.12
2018-05-03T09:39:19.706Z,1004.20
2018-05-03T09:40:19.725Z,1004.20
2018-05-03T09:41:19.675Z,1004.19
2018-05-03T09:42:19.684Z,1004.21
2018-05-03T09:43:19.699Z,1004.26
2018-05-03T09:44:19.674Z,1004.30
2018-05-03T09:45:19.664Z,1004.29
2018-05-03T09:46:19.654Z,1004.32
2018-05-03T09:47:19.636Z,1004.33
2018-05-03T09:48:19.691Z,1004.31
2018-05-03T09:49:19.633Z,1004.36
2018-05-03T09:50:19.660Z,1004.34
2018-05-03T09:51:19.629Z,1004.35
2018-05-03T09:52:19.659Z,1004.23
2018-05-03T09:53:19.616Z,1004.36
2018-05-03T09:54:19.625Z,1004.39
2018-05-03T09:55:19.639Z,1004.41
2018-05-03T09:56:19.668Z,1004.43
2018-05-03T09:57:19.590Z,1004.46
2018-05-03T09:58:19.589Z,1004.45
2018-05-03T09:59:19.629Z,1004.50
2018-05-03T10:00:19.610Z,1004.47
2018-05-03T10:01:19.586Z,1004.52
2018-05-03T10:02:19.556Z,1004.57
2018-05-03T10:03:19.579Z,1004.54
2018-05-03T10:04:19.558Z,1004.55
2018-05-03T10:05:19.553Z,1004.49
2018-05-03T10:06:19.577Z,1004.52
2018-05-03T10:07:19.595Z,1004.60
2018-05-03T10:08:19.536Z,1004.63
2018-05-03T10:09:19.527Z,1004.68
2018-05-03T10:10:19.526Z,1004.65
2018-05-03T10:11:19.528Z,1004.58
2018-05-03T10:12:19.554Z,1004.56
2018-05-03T10:13:19.589Z,1004.53
2018-05-03T10:14:19.515Z,1004.51
2018-05-03T10:15:19.503Z,1004.51
2018-05-03T10:16:19.497Z,1004.50
2018-05-03T10:17:19.546Z,1004.50
2018-05-03T10:18:19.486Z,1004.48
2018-05-03T10:19:19.489Z,1004.50
2018-05-03T10:20:19.480Z,1004.46
2018-05-03T10:21:19.490Z,1004.62
2018-05-03T10:22:19.465Z,1004.59
2018-05-03T10:23:19.476Z,1004.68
2018-05-03T10:24:19.593Z,1004.67
2018-05-03T10:25:19.463Z,1004.62
2018-05-03T10:26:19.681Z,1004.61
2018-05-03T10:27:19.455Z,1004.53
2018-05-03T10:28:19.458Z,1004.61
2018-05-03T10:29:19.448Z,1004.65
2018-05-03T10:30:19.550Z,1004.76
2018-05-03T10:31:19.441Z,1004.64
2018-05-03T10:32:19.444Z,1004.75
2018-05-03T10:33:19.417Z,1004.62
2018-05-03T10:34:19.415Z,1004.64
2018-05-03T10:35:19.435Z,1004.58
2018-05-03T10:36:19.454Z,1004.60
2018-05-03T10:37:19.398Z,1004.61
2018-05-03T10:38:19.414Z,1004.61
2018-05-03T10:39:19.415Z,1004.67
2018-05-03T10:40:19.442Z,1004.64
2018-05-03T10:41:19.384Z,1004.67
2018-05-03T10:42:19.431Z,1004.73
2018-05-03T10:43:19.404Z,1004.70
2018-05-03T10:44:19.359Z,1004.73
2018-05-03T10:45:19.355Z,1004.69
2018-05-03T10:46:19.353Z,1004.72
2018-05-03T10:47:19.372Z,1004.76
2018-05-03T10:48:19.327Z,1004.79
2018-05-03T10:49:19.327Z,1004.73
2018-05-03T10:50:19.319Z,1004.74
2018-05-03T10:51:20.156Z,1004.69
2018-05-03T10:52:19.342Z,1004.67
2018-05-03T10:53:19.327Z,1004.71
2018-05-03T10:54:19.311Z,1004.71
2018-05-03T10:55:19.282Z,1004.70
2018-05-03T10:56:19.286Z,1004.70
2018-05-03T10:57:19.404Z,1004.75
2018-05-03T10:58:19.275Z,1004.69
2018-05-03T10:59:19.280Z,1004.70
2018-05-03T11:00:19.258Z,1004.73
2018-05-03T11:01:19.237Z,1004.72
2018-05-03T11:02:19.258Z,1004.76
2018-05-03T11:03:19.367Z,1004.76
2018-05-03T11:04:19.230Z,1004.75
2018-05-03T11:05:19.272Z,1004.68
2018-05-03T11:06:19.222Z,1004.68
2018-05-03T11:07:19.218Z,1004.66
2018-05-03T11:08:19.206Z,1004.69
2018-05-03T11:09:19.334Z,1004.70
2018-05-03T11:10:19.184Z,1004.86
2018-05-03T11:11:19.159Z,1004.88
2018-05-03T11:12:19.157Z,1005.12
2018-05-03T11:13:19.153Z,1004.99
2018-05-03T11:14:19.149Z,1004.76
2018-05-03T11:15:20.121Z,1004.92
2018-05-03T11:16:19.133Z,1004.79
2018-05-03T11:17:19.130Z,1004.78
2018-05-03T11:18:19.126Z,1004.74
2018-05-03T11:19:19.121Z,1004.72
2018-05-03T11:20:19.148Z,1004.77
2018-05-03T11:21:19.108Z,1004.76
2018-05-03T11:22:19.094Z,1004.78
2018-05-03T11:23:19.096Z,1004.88
2018-05-03T11:24:19.100Z,1004.79
2018-05-03T11:25:19.118Z,1004.84
2018-05-03T11:26:19.098Z,1005.19
2018-05-03T11:27:19.080Z,1004.86
2018-05-03T11:28:19.057Z,1004.80
2018-05-03T11:29:19.094Z,1004.85
2018-05-03T11:30:19.064Z,1004.89
2018-05-03T11:31:19.058Z,1004.88
2018-05-03T11:32:19.029Z,1004.96
2018-05-03T11:33:19.043Z,1004.98
2018-05-03T11:34:19.087Z,1005.02
2018-05-03T11:35:19.015Z,1004.83
2018-05-03T11:36:19.024Z,1005.31
2018-05-03T11:37:19.025Z,1005.15
2018-05-03T11:38:19.011Z,1005.06
2018-05-03T11:39:18.991Z,1004.83
2018-05-03T11:40:19.120Z,1004.85
2018-05-03T11:41:18.995Z,1004.86
2018-05-03T11:42:18.969Z,1004.86
2018-05-03T11:43:18.992Z,1004.85
2018-05-03T11:44:19.680Z,1004.87
2018-05-03T11:45:18.963Z,1004.84
2018-05-03T11:46:19.118Z,1004.87
2018-05-03T11:47:18.954Z,1004.88
2018-05-03T11:48:18.942Z,1004.89
2018-05-03T11:49:18.937Z,1004.90
2018-05-03T11:50:18.913Z,1004.95
2018-05-03T11:51:18.916Z,1004.92
2018-05-03T11:52:18.942Z,1004.92
2018-05-03T11:53:18.917Z,1004.87
2018-05-03T11:54:18.888Z,1004.87
2018-05-03T11:55:18.895Z,1004.85
2018-05-03T11:56:18.900Z,1004.88
2018-05-03T11:57:18.938Z,1004.89
2018-05-03T11:58:18.881Z,1004.88
2018-05-03T11:59:18.937Z,1004.88
2018-05-03T12:00:18.877Z,1004.86
2018-05-03T12:01:18.883Z,1004.84
2018-05-03T12:02:18.861Z,1004.87
2018-05-03T12:03:20.656Z,1004.90
2018-05-03T12:04:18.823Z,1005.01
2018-05-03T12:05:18.816Z,1004.93
2018-05-03T12:06:18.855Z,1004.94
2018-05-03T12:07:18.824Z,1004.92
2018-05-03T12:08:18.822Z,1004.94
2018-05-03T12:09:18.854Z,1004.95
2018-05-03T12:10:18.809Z,1004.91
2018-05-03T12:11:18.795Z,1004.93
2018-05-03T12:12:18.783Z,1004.93
2018-05-03T12:13:18.769Z,1004.92
2018-05-03T12:14:18.775Z,1004.94